createdAt,value
2023-01-17T00:05:05.039Z,4.22
2023-01-17T00:07:50.838Z,4.20
2023-01-17T00:12:56.142Z,4.09
2023-01-17T00:15:23.809Z,4.11
2023-01-17T00:17:51.209Z,4.08
2023-01-17T00:20:41.249Z,4.00
2023-01-17T00:23:30.599Z,4.00
2023-01-17T00:26:03.232Z,4.04
2023-01-17T00:28:40.535Z,4.00
2023-01-17T00:31:08.837Z,3.83
2023-01-17T00:33:36.057Z,3.88
2023-01-17T00:36:04.123Z,3.90
2023-01-17T00:38:33.381Z,3.88
2023-01-17T00:41:06.158Z,3.93
2023-01-17T00:43:51.507Z,3.89
2023-01-17T00:46:37.698Z,3.97
2023-01-17T00:49:24.171Z,4.04
2023-01-17T00:52:09.999Z,4.04
2023-01-17T00:54:55.294Z,4.03
2023-01-17T00:57:40.408Z,3.91
2023-01-17T01:00:26.550Z,4.01
2023-01-17T01:03:11.663Z,4.08
2023-01-17T01:05:57.204Z,3.86
2023-01-17T01:08:45.146Z,4.01
2023-01-17T01:11:35.285Z,3.95
2023-01-17T01:17:06.036Z,4.02
2023-01-17T01:19:52.156Z,3.89
2023-01-17T01:22:37.144Z,3.75
2023-01-17T01:25:22.519Z,3.75
2023-01-17T01:28:07.387Z,3.74
2023-01-17T01:30:52.683Z,3.92
2023-01-17T01:35:52.812Z,3.78
2023-01-17T01:38:22.652Z,3.85
2023-01-17T01:40:55.003Z,3.83
2023-01-17T01:43:50.393Z,3.68
2023-01-17T01:46:29.993Z,3.58
2023-01-17T01:49:02.101Z,3.68
2023-01-17T01:51:35.351Z,3.71
2023-01-17T01:54:07.482Z,3.75
2023-01-17T01:56:34.217Z,3.68
2023-01-17T01:59:04.133Z,3.66
2023-01-17T02:01:31.702Z,3.74
2023-01-17T02:03:58.756Z,3.85
2023-01-17T02:06:30.860Z,3.82
2023-01-17T02:09:01.784Z,3.75
2023-01-17T02:11:28.298Z,3.90
2023-01-17T02:13:55.076Z,3.92
2023-01-17T02:16:44.340Z,3.79
2023-01-17T02:19:48.199Z,3.91
2023-01-17T02:22:36.491Z,3.94
2023-01-17T02:25:23.771Z,3.93
2023-01-17T02:28:05.022Z,3.94
2023-01-17T02:30:39.440Z,3.75
2023-01-17T02:33:24.630Z,3.92
2023-01-17T02:36:10.183Z,3.88
2023-01-17T02:39:13.801Z,3.68
2023-01-17T02:41:46.115Z,3.82
2023-01-17T02:46:50.607Z,3.94
2023-01-17T02:55:13.284Z,3.69
2023-01-17T03:01:06.384Z,3.50
2023-01-17T03:03:52.975Z,3.50
2023-01-17T03:06:40.943Z,3.47
2023-01-17T03:09:09.421Z,3.51
2023-01-17T03:11:36.310Z,3.46
2023-01-17T03:14:03.472Z,3.36
2023-01-17T03:16:33.499Z,3.40
2023-01-17T03:19:00.569Z,3.54
2023-01-17T03:21:27.568Z,3.55
2023-01-17T03:23:54.525Z,3.51
2023-01-17T03:28:51.359Z,3.57
2023-01-17T03:33:47.682Z,3.43
2023-01-17T03:38:43.183Z,3.48
2023-01-17T03:41:10.484Z,3.42
2023-01-17T03:43:38.092Z,3.32
2023-01-17T03:48:46.789Z,3.20
2023-01-17T03:51:13.536Z,3.17
2023-01-17T03:53:40.630Z,3.28
2023-01-17T03:56:10.332Z,3.22
2023-01-17T03:58:37.208Z,3.28
2023-01-17T04:01:04.121Z,3.41
2023-01-17T04:03:31.374Z,3.23
2023-01-17T04:08:24.980Z,3.28
2023-01-17T04:10:51.699Z,3.30
2023-01-17T04:15:50.937Z,3.12
2023-01-17T04:18:20.195Z,3.08
2023-01-17T04:20:47.258Z,3.22
2023-01-17T04:28:07.452Z,3.53
2023-01-17T04:30:34.421Z,3.44
2023-01-17T04:33:01.367Z,3.43
2023-01-17T04:35:31.130Z,3.28
2023-01-17T04:37:57.956Z,3.26
2023-01-17T04:40:25.146Z,3.24
2023-01-17T04:42:52.291Z,3.33
2023-01-17T04:45:19.403Z,3.42
2023-01-17T04:47:46.216Z,3.26
2023-01-17T04:52:40.643Z,3.14
2023-01-17T04:55:07.998Z,3.32
2023-01-17T04:57:34.844Z,3.33
2023-01-17T05:00:01.727Z,3.12
2023-01-17T05:02:28.573Z,3.08
2023-01-17T05:04:55.346Z,3.07
2023-01-17T05:07:21.968Z,2.86
2023-01-17T05:09:48.737Z,3.06
2023-01-17T05:14:41.992Z,2.71
2023-01-17T05:17:11.225Z,2.76
2023-01-17T05:19:38.185Z,2.75
2023-01-17T05:24:45.815Z,2.77
2023-01-17T05:29:40.646Z,2.66
2023-01-17T05:32:07.682Z,2.70
2023-01-17T05:34:35.218Z,2.62
2023-01-17T05:37:02.280Z,2.75
2023-01-17T05:39:31.155Z,2.83
2023-01-17T05:41:58.514Z,2.82
2023-01-17T05:44:27.548Z,2.90
2023-01-17T05:46:54.613Z,2.97
2023-01-17T05:49:21.359Z,2.96
2023-01-17T05:51:48.250Z,2.63
2023-01-17T05:56:41.768Z,2.85
2023-01-17T05:59:08.566Z,2.66
2023-01-17T06:01:35.388Z,2.51
2023-01-17T06:04:02.145Z,2.52
2023-01-17T06:06:30.093Z,2.53
2023-01-17T06:08:57.782Z,2.39
2023-01-17T06:11:24.483Z,2.18
2023-01-17T06:13:51.393Z,2.09
2023-01-17T06:16:26.861Z,2.14
2023-01-17T06:18:53.869Z,2.30
2023-01-17T06:21:22.770Z,2.22
2023-01-17T06:23:49.482Z,2.19
2023-01-17T06:28:43.228Z,2.06
2023-01-17T06:31:10.216Z,2.19
2023-01-17T06:33:39.085Z,2.23
2023-01-17T06:36:06.244Z,2.21
2023-01-17T06:38:33.377Z,2.19
2023-01-17T06:41:04.675Z,2.08
2023-01-17T06:43:33.792Z,2.14
2023-01-17T06:46:04.692Z,2.36
2023-01-17T06:48:31.323Z,2.34
2023-01-17T06:50:58.248Z,2.36
2023-01-17T06:53:28.108Z,2.47
2023-01-17T06:55:57.825Z,2.63
2023-01-17T06:58:24.740Z,2.69
2023-01-17T07:00:51.987Z,2.75
2023-01-17T07:03:24.411Z,2.59
2023-01-17T07:05:51.664Z,2.48
2023-01-17T07:08:20.451Z,2.60
2023-01-17T07:10:48.078Z,2.49
2023-01-17T07:15:42.156Z,2.38
2023-01-17T07:18:08.857Z,2.53
2023-01-17T07:20:35.402Z,2.64
2023-01-17T07:23:02.000Z,2.64
2023-01-17T07:25:28.611Z,2.74
2023-01-17T07:27:57.574Z,2.56
2023-01-17T07:30:24.936Z,2.28
2023-01-17T07:32:55.242Z,2.16
2023-01-17T07:35:23.148Z,2.08
2023-01-17T07:37:50.639Z,2.18
2023-01-17T07:40:18.664Z,2.34
2023-01-17T07:42:45.770Z,2.54
2023-01-17T07:47:40.836Z,2.57
2023-01-17T07:50:08.948Z,2.55
2023-01-17T07:52:35.793Z,2.53
2023-01-17T07:55:05.331Z,2.49
2023-01-17T07:57:35.338Z,2.42
2023-01-17T08:00:05.435Z,2.66
2023-01-17T08:02:32.070Z,2.50
2023-01-17T08:05:05.767Z,2.76
2023-01-17T08:07:32.904Z,2.97
2023-01-17T08:10:07.276Z,3.11
2023-01-17T08:12:36.005Z,3.23
2023-01-17T08:15:15.563Z,3.35
2023-01-17T08:17:47.095Z,3.40
2023-01-17T08:22:51.360Z,3.79
2023-01-17T08:25:24.077Z,3.80
2023-01-17T08:27:52.177Z,3.63
2023-01-17T08:30:21.729Z,3.84
2023-01-17T08:32:48.642Z,3.96
2023-01-17T08:37:45.588Z,3.88
2023-01-17T08:40:20.669Z,4.02
2023-01-17T08:42:57.779Z,3.61
2023-01-17T08:45:24.931Z,3.74
2023-01-17T08:47:52.408Z,3.90
2023-01-17T08:50:23.424Z,3.88
2023-01-17T08:52:59.085Z,4.00
2023-01-17T08:55:29.973Z,4.41
2023-01-17T08:57:59.101Z,4.84
2023-01-17T09:00:27.251Z,5.63
2023-01-17T09:02:54.253Z,6.36
2023-01-17T09:05:21.184Z,6.22
2023-01-17T09:07:48.056Z,5.94
2023-01-17T09:12:41.771Z,6.79
2023-01-17T09:15:09.280Z,7.78
2023-01-17T09:17:38.977Z,7.49
2023-01-17T09:20:06.566Z,8.33
2023-01-17T09:22:39.188Z,8.44
2023-01-17T09:25:09.698Z,9.37
2023-01-17T09:27:36.911Z,8.87
2023-01-17T09:30:07.943Z,9.71
2023-01-17T09:32:34.999Z,8.86
2023-01-17T09:35:07.534Z,8.67
2023-01-17T09:37:35.883Z,8.91
2023-01-17T09:40:05.626Z,8.60
2023-01-17T09:42:41.217Z,9.51
2023-01-17T09:45:18.776Z,9.50
2023-01-17T09:47:52.667Z,6.98
2023-01-17T09:50:34.404Z,8.67
2023-01-17T09:53:23.389Z,8.98
2023-01-17T09:56:09.360Z,8.78
2023-01-17T09:59:33.184Z,8.80
2023-01-17T10:02:32.158Z,9.15
2023-01-17T10:06:03.913Z,9.08
2023-01-17T10:09:00.955Z,9.70
2023-01-17T10:11:40.081Z,9.02
2023-01-17T10:14:37.307Z,10.39
2023-01-17T10:17:54.552Z,10.60
2023-01-17T10:20:47.168Z,8.15
2023-01-17T10:23:40.675Z,6.89
2023-01-17T10:26:35.052Z,7.17
2023-01-17T10:32:02.436Z,6.37
2023-01-17T10:34:46.783Z,6.55
2023-01-17T10:37:34.007Z,6.45
2023-01-17T10:40:28.907Z,6.31
2023-01-17T10:43:03.366Z,6.40
2023-01-17T10:45:55.373Z,6.23
2023-01-17T10:48:36.565Z,6.12
2023-01-17T10:51:10.651Z,6.13
2023-01-17T10:54:01.788Z,6.19
2023-01-17T10:56:39.790Z,6.37
2023-01-17T10:59:30.658Z,6.20
2023-01-17T11:02:01.293Z,6.29
2023-01-17T11:04:36.799Z,5.96
2023-01-17T11:07:27.445Z,6.40
2023-01-17T11:09:58.862Z,6.26
2023-01-17T11:12:47.588Z,6.33
2023-01-17T11:15:17.835Z,6.38
2023-01-17T11:18:01.069Z,5.52
2023-01-17T11:20:39.265Z,5.81
2023-01-17T11:23:21.729Z,6.01
2023-01-17T11:26:02.748Z,5.69
2023-01-17T11:28:34.866Z,5.76
2023-01-17T11:31:35.510Z,6.02
2023-01-17T11:34:28.248Z,5.91
2023-01-17T11:37:19.666Z,5.25
2023-01-17T11:39:50.401Z,5.09
2023-01-17T11:42:38.547Z,4.79
2023-01-17T11:45:29.242Z,4.58
2023-01-17T11:50:44.237Z,4.68
2023-01-17T11:53:22.341Z,4.42
2023-01-17T11:58:43.466Z,4.60
2023-01-17T12:01:26.174Z,4.70
2023-01-17T12:04:02.323Z,4.98
2023-01-17T12:06:56.377Z,4.81
2023-01-17T12:10:01.944Z,5.21
2023-01-17T12:12:56.044Z,5.21
2023-01-17T12:15:31.888Z,5.03
2023-01-17T12:18:28.841Z,5.07
2023-01-17T12:23:49.195Z,5.28
2023-01-17T12:26:29.742Z,5.69
2023-01-17T12:29:03.378Z,5.88
2023-01-17T12:31:35.138Z,5.87
2023-01-17T12:34:24.948Z,6.31
2023-01-17T12:37:06.446Z,6.53
2023-01-17T12:39:44.748Z,6.08
2023-01-17T12:42:24.565Z,6.17
2023-01-17T12:45:04.525Z,6.48
2023-01-17T12:47:36.338Z,6.15
2023-01-17T12:50:24.802Z,5.87
2023-01-17T12:53:05.183Z,5.51
2023-01-17T12:55:48.454Z,5.50
2023-01-17T12:58:20.894Z,5.87
2023-01-17T13:00:54.509Z,6.04
2023-01-17T13:03:47.435Z,6.69
2023-01-17T13:06:58.853Z,6.73
2023-01-17T13:09:31.138Z,6.55
2023-01-17T13:12:09.988Z,6.07
2023-01-17T13:14:36.573Z,5.85
2023-01-17T13:17:23.297Z,5.67
2023-01-17T13:20:08.465Z,5.55
2023-01-17T13:22:37.451Z,5.46
2023-01-17T13:25:13.175Z,5.74
2023-01-17T13:28:08.763Z,5.78
2023-01-17T13:31:13.635Z,6.46
2023-01-17T13:33:55.178Z,6.85
2023-01-17T13:37:02.390Z,6.25
2023-01-17T13:39:45.630Z,5.64
2023-01-17T13:44:51.225Z,5.38
2023-01-17T13:47:17.623Z,5.37
2023-01-17T13:49:45.560Z,5.57
2023-01-17T13:52:33.443Z,5.69
2023-01-17T13:55:07.102Z,5.68
2023-01-17T13:57:46.174Z,5.82
2023-01-17T14:00:47.344Z,6.36
2023-01-17T14:03:14.134Z,6.27
2023-01-17T14:05:41.288Z,6.14
2023-01-17T14:08:22.134Z,5.84
2023-01-17T14:10:51.960Z,5.43
2023-01-17T14:13:39.471Z,5.10
2023-01-17T14:16:27.765Z,4.90
2023-01-17T14:18:55.889Z,4.74
2023-01-17T14:21:27.408Z,4.68
2023-01-17T14:24:18.345Z,4.46
2023-01-17T14:26:59.254Z,4.42
2023-01-17T14:29:54.978Z,4.42
2023-01-17T14:32:25.306Z,4.33
2023-01-17T14:34:53.570Z,4.36
2023-01-17T14:37:32.658Z,4.33
2023-01-17T14:40:00.743Z,4.31
2023-01-17T14:42:30.825Z,4.36
2023-01-17T14:45:08.169Z,4.26
2023-01-17T14:47:42.029Z,4.20
2023-01-17T14:50:17.838Z,4.18
2023-01-17T14:52:47.257Z,4.14
2023-01-17T14:57:56.714Z,4.14
2023-01-17T15:00:30.846Z,4.08
2023-01-17T15:02:59.568Z,4.01
2023-01-17T15:05:28.899Z,4.01
2023-01-17T15:07:57.975Z,3.99
2023-01-17T15:10:31.327Z,3.97
2023-01-17T15:13:09.525Z,3.97
2023-01-17T15:15:39.789Z,3.97
2023-01-17T15:18:20.237Z,3.97
2023-01-17T15:20:58.197Z,3.99
2023-01-17T15:26:01.546Z,3.87
2023-01-17T15:28:29.239Z,3.77
2023-01-17T15:31:17.451Z,3.79
2023-01-17T15:33:47.680Z,3.74
2023-01-17T15:39:02.404Z,3.69
2023-01-17T15:41:44.868Z,3.60
2023-01-17T15:44:49.700Z,3.61
2023-01-17T15:47:39.558Z,3.54
2023-01-17T15:50:25.637Z,3.53
2023-01-17T15:55:28.780Z,3.47
2023-01-17T15:57:55.569Z,3.47
2023-01-17T16:00:37.421Z,3.42
2023-01-17T16:03:24.553Z,3.36
2023-01-17T16:05:53.244Z,3.32
2023-01-17T16:08:26.557Z,3.31
2023-01-17T16:11:01.797Z,3.32
2023-01-17T16:16:10.803Z,3.29
2023-01-17T16:18:37.563Z,3.32
2023-01-17T16:26:18.413Z,3.32
2023-01-17T16:28:46.091Z,3.25
2023-01-17T16:31:17.073Z,3.25
2023-01-17T16:33:45.911Z,3.23
2023-01-17T16:36:15.230Z,3.24
2023-01-17T16:38:45.924Z,3.24
2023-01-17T16:41:12.931Z,3.20
2023-01-17T16:43:39.631Z,3.23
2023-01-17T16:46:06.931Z,3.18
2023-01-17T16:48:33.606Z,3.10
2023-01-17T16:51:05.739Z,3.03
2023-01-17T16:53:32.400Z,3.08
2023-01-17T16:56:06.461Z,3.07
2023-01-17T17:01:02.354Z,3.09
2023-01-17T17:03:29.841Z,3.09
2023-01-17T17:06:00.999Z,3.03
2023-01-17T17:08:29.354Z,3.04
2023-01-17T17:11:06.074Z,3.12
2023-01-17T17:13:35.780Z,3.19
2023-01-17T17:16:03.251Z,3.18
2023-01-17T17:18:29.896Z,3.20
2023-01-17T17:21:01.954Z,3.16
2023-01-17T17:23:28.536Z,3.13
2023-01-17T17:25:56.123Z,3.15
2023-01-17T17:28:22.688Z,3.14
2023-01-17T17:30:49.206Z,3.00
2023-01-17T17:33:15.779Z,3.03
2023-01-17T17:38:08.929Z,2.90
2023-01-17T17:40:35.876Z,2.72
2023-01-17T17:43:02.366Z,2.62
2023-01-17T17:45:28.862Z,2.56
2023-01-17T17:47:55.667Z,2.49
2023-01-17T17:50:24.870Z,2.52
2023-01-17T17:52:54.915Z,2.44
2023-01-17T17:55:27.429Z,2.44
2023-01-17T17:57:55.498Z,2.24
2023-01-17T18:00:23.187Z,2.32
2023-01-17T18:02:50.859Z,2.40
2023-01-17T18:05:17.381Z,2.53
2023-01-17T18:07:55.523Z,2.52
2023-01-17T18:10:22.742Z,2.41
2023-01-17T18:12:49.423Z,2.30
2023-01-17T18:15:16.245Z,2.30
2023-01-17T18:17:42.805Z,2.32
2023-01-17T18:20:09.922Z,2.28
2023-01-17T18:22:36.760Z,2.26
2023-01-17T18:25:11.925Z,2.20
2023-01-17T18:27:53.752Z,2.21
2023-01-17T18:30:20.692Z,2.24
2023-01-17T18:35:21.238Z,2.25
2023-01-17T18:37:47.712Z,2.25
2023-01-17T18:40:14.259Z,2.25
2023-01-17T18:42:40.847Z,2.24
2023-01-17T18:45:08.260Z,2.20
2023-01-17T18:47:34.854Z,2.14
2023-01-17T18:50:01.535Z,2.05
2023-01-17T18:52:28.261Z,1.99
2023-01-17T18:54:55.018Z,2.01
2023-01-17T18:57:21.637Z,2.00
2023-01-17T18:59:48.132Z,1.99
2023-01-17T19:02:14.863Z,2.02
2023-01-17T19:07:08.141Z,2.02
2023-01-17T19:09:35.041Z,2.02
2023-01-17T19:12:01.709Z,2.06
2023-01-17T19:14:28.182Z,2.11
2023-01-17T19:16:55.824Z,2.12
2023-01-17T19:19:22.410Z,2.16
2023-01-17T19:21:52.455Z,2.18
2023-01-17T19:24:18.982Z,2.21
2023-01-17T19:26:46.391Z,2.14
2023-01-17T19:29:13.219Z,2.12
2023-01-17T19:31:42.767Z,2.12
2023-01-17T19:34:10.589Z,2.09
2023-01-17T19:39:07.594Z,1.98
2023-01-17T19:41:37.314Z,1.96
2023-01-17T19:44:09.079Z,1.80
2023-01-17T19:46:36.971Z,1.88
2023-01-17T19:49:05.596Z,1.79
2023-01-17T19:51:32.356Z,1.74
2023-01-17T19:54:01.228Z,1.61
2023-01-17T19:56:28.575Z,1.62
2023-01-17T19:58:57.039Z,1.56
2023-01-17T20:01:28.381Z,1.59
2023-01-17T20:03:57.496Z,1.51
2023-01-17T20:06:28.759Z,1.55
2023-01-17T20:08:55.894Z,1.59
2023-01-17T20:11:24.001Z,1.61
2023-01-17T20:13:55.835Z,1.59
2023-01-17T20:16:24.216Z,1.59
2023-01-17T20:18:51.148Z,1.53
2023-01-17T20:21:19.970Z,1.56
2023-01-17T20:23:48.188Z,1.66
2023-01-17T20:26:17.378Z,1.63
2023-01-17T20:28:45.728Z,1.55
2023-01-17T20:31:17.841Z,1.50
2023-01-17T20:33:47.411Z,1.48
2023-01-17T20:36:15.886Z,1.58
2023-01-17T20:38:43.777Z,1.71
2023-01-17T20:41:27.333Z,1.64
2023-01-17T20:43:55.930Z,1.60
2023-01-17T20:46:25.537Z,1.55
2023-01-17T20:48:57.891Z,1.60
2023-01-17T20:51:26.387Z,1.64
2023-01-17T20:53:56.053Z,1.58
2023-01-17T20:56:24.403Z,1.51
2023-01-17T21:01:24.619Z,1.54
2023-01-17T21:03:53.899Z,1.55
2023-01-17T21:06:24.588Z,1.58
2023-01-17T21:08:52.100Z,1.65
2023-01-17T21:13:48.936Z,1.63
2023-01-17T21:16:20.281Z,1.72
2023-01-17T21:18:47.931Z,1.68
2023-01-17T21:21:17.831Z,1.75
2023-01-17T21:23:45.458Z,1.73
2023-01-17T21:29:05.472Z,1.77
2023-01-17T21:31:34.700Z,1.70
2023-01-17T21:34:04.175Z,1.53
2023-01-17T21:36:33.620Z,1.44
2023-01-17T21:39:04.784Z,1.49
2023-01-17T21:41:35.313Z,1.45
2023-01-17T21:44:05.219Z,1.32
2023-01-17T21:46:31.823Z,1.35
2023-01-17T21:48:58.311Z,1.38
2023-01-17T21:51:45.264Z,1.41
2023-01-17T21:54:11.950Z,1.42
2023-01-17T21:56:56.776Z,1.30
2023-01-17T21:59:23.594Z,1.25
2023-01-17T22:01:50.337Z,1.22
2023-01-17T22:04:16.877Z,1.22
2023-01-17T22:09:09.981Z,1.19
2023-01-17T22:14:08.426Z,1.18
2023-01-17T22:16:35.211Z,1.18
2023-01-17T22:19:01.677Z,1.19
2023-01-17T22:23:57.288Z,1.41
2023-01-17T22:28:53.786Z,1.27
2023-01-17T22:31:22.610Z,1.33
2023-01-17T22:38:57.982Z,1.51
2023-01-17T22:41:31.201Z,1.46
2023-01-17T22:43:59.929Z,1.40
2023-01-17T22:46:30.019Z,1.38
2023-01-17T22:48:57.268Z,1.40
2023-01-17T22:51:25.125Z,1.32
2023-01-17T22:53:54.067Z,1.32
2023-01-17T22:56:26.456Z,1.40
2023-01-17T22:58:53.277Z,1.47
2023-01-17T23:01:25.532Z,1.58
2023-01-17T23:03:55.066Z,1.68
2023-01-17T23:06:37.118Z,1.31
2023-01-17T23:09:10.954Z,1.17
2023-01-17T23:14:30.297Z,1.16
2023-01-17T23:17:17.965Z,1.15
2023-01-17T23:22:20.036Z,1.20
2023-01-17T23:24:51.208Z,1.23
2023-01-17T23:30:26.154Z,1.18
2023-01-17T23:32:59.015Z,1.12
2023-01-17T23:35:31.834Z,1.16
2023-01-17T23:38:17.035Z,1.15
2023-01-17T23:41:04.126Z,1.14
2023-01-17T23:43:31.553Z,1.07
2023-01-17T23:45:58.130Z,0.97
2023-01-17T23:50:59.947Z,1.00
2023-01-17T23:53:27.750Z,1.06
2023-01-17T23:55:57.005Z,1.08
2023-01-17T23:58:26.067Z,1.06
